Time;durP1;ratioP1;P1;durP2;ratioP2;P2;SDS_P1;SDS_P2;PMS_P1;PMS_P2;Temp;Humidity;BMP_temperature;BMP_pressure;BME280_temperature;BME280_humidity;BME280_pressure;Samples;Min_cycle;Max_cycle;Signal;HPM_P1;HPM_P2
2023/06/13 00:02:10;;;;;;;5.82;3.83;;;;;14.00;96229.00;;;;8315621;28;20240;-68
2023/06/13 00:06:17;;;;;;;7.65;3.67;;;;;14.00;96233.00;;;;8315642;28;20272;-67
2023/06/13 00:10:22;;;;;;;10.95;4.65;;;;;13.90;96227.00;;;;8302077;28;20220;-69
2023/06/13 00:14:26;;;;;;;7.18;3.72;;;;;13.90;96219.00;;;;8284572;28;20217;-68
2023/06/13 00:18:30;;;;;;;6.95;3.90;;;;;13.90;96219.00;;;;8304978;28;20648;-70
2023/06/13 00:22:34;;;;;;;5.00;3.60;;;;;13.90;96218.00;;;;8306355;28;20202;-68
2023/06/13 00:26:39;;;;;;;5.18;4.03;;;;;13.90;96215.00;;;;8293119;28;20649;-70
2023/06/13 00:30:43;;;;;;;6.57;3.78;;;;;13.90;96207.00;;;;8310947;28;20219;-68
2023/06/13 00:34:51;;;;;;;5.47;3.80;;;;;13.80;96209.00;;;;8308584;28;20220;-70
2023/06/13 00:38:58;;;;;;;7.60;4.10;;;;;13.80;96208.00;;;;8305875;28;20287;-67
2023/06/13 00:43:03;;;;;;;9.45;4.03;;;;;13.70;96210.00;;;;8313939;28;20619;-68
2023/06/13 00:47:13;;;;;;;5.57;4.15;;;;;13.70;96207.00;;;;8312036;28;20395;-66
2023/06/13 00:51:20;;;;;;;16.15;4.68;;;;;13.70;96207.00;;;;8318809;28;20234;-66
2023/06/13 00:55:25;;;;;;;5.95;3.90;;;;;13.70;96201.00;;;;8321416;28;20657;-65
2023/06/13 00:59:33;;;;;;;9.05;4.20;;;;;13.70;96193.00;;;;8319805;28;20646;-72
2023/06/13 01:03:37;;;;;;;4.90;3.72;;;;;13.60;96183.00;;;;8321192;28;20306;-67
2023/06/13 01:07:45;;;;;;;9.45;4.07;;;;;13.50;96195.00;;;;8320700;28;22377;-66
2023/06/13 01:12:08;;;;;;;11.88;4.50;;;;;13.50;96196.00;;;;8314295;28;20220;-68
2023/06/13 01:16:22;;;;;;;6.93;4.22;;;;;13.40;96194.00;;;;8310963;28;20441;-68
2023/06/13 01:20:29;;;;;;;4.82;4.03;;;;;13.40;96185.00;;;;8313040;28;20227;-72
2023/06/13 01:24:43;;;;;;;7.75;3.90;;;;;13.30;96186.00;;;;8310403;28;20211;-65
2023/06/13 01:28:51;;;;;;;8.20;3.75;;;;;13.30;96181.00;;;;8313228;28;20625;-68
2023/06/13 01:32:57;;;;;;;7.45;4.20;;;;;13.20;96170.00;;;;8307020;28;20680;-65
2023/06/13 01:37:00;;;;;;;5.53;4.22;;;;;13.20;96177.00;;;;8294651;28;20290;-69
2023/06/13 01:41:04;;;;;;;9.95;5.50;;;;;13.10;96174.00;;;;8313289;28;20234;-69
2023/06/13 01:45:11;;;;;;;7.30;4.25;;;;;13.00;96168.00;;;;8311674;28;20193;-73
2023/06/13 01:49:22;;;;;;;7.18;4.40;;;;;12.90;96164.00;;;;8307132;28;20609;-68
2023/06/13 01:53:32;;;;;;;4.97;3.78;;;;;12.90;96162.00;;;;8302588;28;20191;-72
2023/06/13 01:57:42;;;;;;;4.50;3.90;;;;;12.90;96158.00;;;;8307415;28;20198;-68
2023/06/13 02:01:49;;;;;;;8.90;4.57;;;;;12.90;96156.00;;;;8316242;28;20539;-68
2023/06/13 02:05:55;;;;;;;10.20;4.88;;;;;12.90;96156.00;;;;8305551;28;20639;-67
2023/06/13 02:10:04;;;;;;;8.05;4.82;;;;;12.90;96160.00;;;;8306206;28;20236;-68
2023/06/13 02:14:11;;;;;;;5.57;4.40;;;;;12.80;96165.00;;;;8313256;28;20204;-67
2023/06/13 02:18:16;;;;;;;8.05;4.70;;;;;12.70;96161.00;;;;8311733;28;20291;-67
2023/06/13 02:22:26;;;;;;;7.55;4.45;;;;;12.60;96157.00;;;;8312648;28;20664;-68
2023/06/13 02:26:30;;;;;;;14.13;4.43;;;;;12.50;96157.00;;;;8313829;28;20203;-68
2023/06/13 02:30:37;;;;;;;7.75;4.43;;;;;12.50;96145.00;;;;8310288;28;20250;-67
2023/06/13 02:34:45;;;;;;;7.13;4.65;;;;;12.50;96146.00;;;;8307130;28;20207;-71
2023/06/13 02:38:51;;;;;;;6.25;4.45;;;;;12.40;96139.00;;;;8311882;28;20699;-72
2023/06/13 02:42:58;;;;;;;7.43;4.53;;;;;12.30;96138.00;;;;8316311;28;20465;-68
2023/06/13 02:47:01;;;;;;;5.28;4.35;;;;;12.30;96136.00;;;;8317255;28;20258;-65
2023/06/13 02:51:07;;;;;;;6.70;4.43;;;;;12.30;96122.00;;;;8318688;28;21041;-66
2023/06/13 02:55:10;;;;;;;7.28;4.22;;;;;12.30;96120.00;;;;8317718;28;20201;-66
2023/06/13 02:59:13;;;;;;;7.97;4.43;;;;;12.20;96130.00;;;;8318228;28;20825;-65
2023/06/13 03:03:18;;;;;;;6.82;4.60;;;;;12.20;96126.00;;;;8354900;23;20229;-94
2023/06/13 03:07:25;;;;;;;8.13;4.68;;;;;12.10;96122.00;;;;8349888;28;20706;-95
2023/06/13 03:11:37;;;;;;;4.80;3.63;;;;;12.10;96127.00;;;;8349668;28;20734;-94
2023/06/13 03:15:43;;;;;;;5.13;4.20;;;;;12.10;96126.00;;;;8351491;28;20198;-93
2023/06/13 03:19:50;;;;;;;7.20;4.47;;;;;12.10;96118.00;;;;8350964;28;20193;-94
2023/06/13 03:24:14;;;;;;;8.00;4.70;;;;;12.10;96115.00;;;;8351024;28;20202;-95
2023/06/13 03:28:43;;;;;;;5.82;4.40;;;;;12.10;96113.00;;;;8350981;28;20198;-94
2023/06/13 03:32:58;;;;;;;8.07;3.92;;;;;12.10;96116.00;;;;8353885;28;20233;-95
2023/06/13 03:37:13;;;;;;;7.35;4.47;;;;;12.00;96120.00;;;;8351826;28;20201;-94
2023/06/13 03:41:27;;;;;;;7.80;4.50;;;;;11.90;96131.00;;;;8353336;28;20197;-95
2023/06/13 03:50:17;;;;;;;6.85;4.22;;;;;12.30;96129.00;;;;8354178;28;20220;-95
2023/06/13 03:54:30;;;;;;;10.27;4.65;;;;;12.50;96125.00;;;;8354772;28;20229;-94
2023/06/13 03:58:50;;;;;;;6.67;4.43;;;;;12.60;96124.00;;;;8353062;28;20205;-95
2023/06/13 04:03:00;;;;;;;9.63;4.95;;;;;12.90;96120.00;;;;8347005;28;20210;-95
2023/06/13 04:07:09;;;;;;;7.75;4.63;;;;;13.20;96120.00;;;;8353671;28;20227;-95
2023/06/13 04:11:23;;;;;;;7.45;4.47;;;;;13.60;96127.00;;;;8353199;28;20244;-93
2023/06/13 04:15:51;;;;;;;9.13;4.50;;;;;14.10;96124.00;;;;8355760;28;20644;-93
2023/06/13 04:20:14;;;;;;;6.22;4.05;;;;;14.50;96115.00;;;;8357444;28;20186;-95
2023/06/13 04:24:31;;;;;;;7.03;4.85;;;;;15.00;96119.00;;;;8357284;28;20544;-95
2023/06/13 04:28:40;;;;;;;8.77;4.10;;;;;15.40;96129.00;;;;8356693;28;20199;-94
2023/06/13 04:32:56;;;;;;;5.00;4.30;;;;;15.80;96123.00;;;;8355212;28;20306;-95
2023/06/13 04:37:04;;;;;;;7.45;4.45;;;;;16.20;96137.00;;;;8355851;28;20200;-94
2023/06/13 04:41:13;;;;;;;9.43;4.40;;;;;16.50;96138.00;;;;8357175;28;20219;-95
2023/06/13 04:49:23;;;;;;;11.00;4.78;;;;;17.10;96149.00;;;;8250922;28;20826;-72
2023/06/13 04:53:29;;;;;;;7.28;4.63;;;;;17.30;96141.00;;;;8254478;28;20289;-71
2023/06/13 04:57:44;;;;;;;6.78;3.95;;;;;17.30;96151.00;;;;8257281;28;20206;-71
2023/06/13 05:01:47;;;;;;;6.88;4.10;;;;;17.60;96153.00;;;;8257939;28;20507;-71
2023/06/13 05:05:52;;;;;;;7.85;4.18;;;;;17.60;96138.00;;;;8252645;28;20230;-72
2023/06/13 05:09:55;;;;;;;7.50;4.50;;;;;17.80;96145.00;;;;8257217;28;20222;-71
2023/06/13 05:13:58;;;;;;;9.48;4.35;;;;;18.00;96149.00;;;;8252675;28;20747;-70
2023/06/13 05:18:02;;;;;;;5.93;4.35;;;;;18.10;96147.00;;;;8257221;28;20217;-70
2023/06/13 05:22:11;;;;;;;5.78;4.07;;;;;18.00;96144.00;;;;8256907;28;20198;-70
2023/06/13 05:26:19;;;;;;;4.68;3.90;;;;;18.20;96149.00;;;;8257245;28;20713;-71
2023/06/13 05:30:24;;;;;;;6.15;4.43;;;;;18.20;96153.00;;;;8256799;28;20227;-71
2023/06/13 05:34:31;;;;;;;4.85;3.97;;;;;18.40;96145.00;;;;8254997;28;20210;-71
2023/06/13 05:38:37;;;;;;;10.20;4.32;;;;;18.60;96148.00;;;;8256872;28;20226;-71
2023/06/13 05:42:43;;;;;;;8.88;4.45;;;;;19.00;96150.00;;;;8257072;28;20207;-71
2023/06/13 05:46:46;;;;;;;7.88;4.00;;;;;19.70;96154.00;;;;8256241;28;20207;-71
2023/06/13 05:50:53;;;;;;;6.65;4.03;;;;;20.50;96157.00;;;;8255408;28;20823;-70
2023/06/13 05:54:57;;;;;;;4.20;3.80;;;;;21.20;96153.00;;;;8256693;28;20275;-70
2023/06/13 05:59:01;;;;;;;6.50;3.95;;;;;21.60;96153.00;;;;8256264;28;21058;-72
2023/06/13 06:03:05;;;;;;;9.40;4.03;;;;;21.80;96153.00;;;;8249251;28;20242;-70
2023/06/13 06:07:09;;;;;;;8.02;3.75;;;;;21.90;96145.00;;;;8254930;28;20213;-71
2023/06/13 06:11:22;;;;;;;4.43;3.78;;;;;22.20;96158.00;;;;8255611;28;20655;-70
2023/06/13 06:15:26;;;;;;;4.85;3.65;;;;;22.70;96162.00;;;;8255948;28;20294;-70
2023/06/13 06:19:30;;;;;;;6.30;3.60;;;;;23.20;96166.00;;;;8253223;28;20234;-71
2023/06/13 06:23:33;;;;;;;5.38;3.78;;;;;23.20;96165.00;;;;8253530;28;20277;-71
2023/06/13 06:27:37;;;;;;;5.70;3.40;;;;;23.20;96161.00;;;;8253805;28;20207;-70
2023/06/13 06:31:43;;;;;;;5.10;3.45;;;;;23.50;96162.00;;;;8253642;28;20956;-70
2023/06/13 06:35:49;;;;;;;8.15;4.00;;;;;23.90;96163.00;;;;8254375;28;20210;-70
2023/06/13 06:39:53;;;;;;;4.82;3.67;;;;;24.10;96177.00;;;;8251890;28;20549;-70
2023/06/13 06:43:57;;;;;;;3.92;3.38;;;;;24.10;96183.00;;;;8254859;28;20951;-70
2023/06/13 06:48:01;;;;;;;11.30;3.80;;;;;24.10;96182.00;;;;8254055;28;20740;-71
2023/06/13 06:52:05;;;;;;;5.55;3.83;;;;;23.90;96186.00;;;;8251963;28;20718;-72
2023/06/13 06:56:10;;;;;;;5.28;3.72;;;;;24.10;96188.00;;;;8253046;28;20195;-70
2023/06/13 07:00:17;;;;;;;9.25;4.10;;;;;24.20;96194.00;;;;8253562;28;20723;-69
2023/06/13 07:04:24;;;;;;;7.15;3.95;;;;;24.60;96189.00;;;;8247606;28;20269;-71
2023/06/13 07:08:28;;;;;;;6.13;2.95;;;;;24.80;96191.00;;;;8250608;28;20198;-69
2023/06/13 07:12:34;;;;;;;4.10;3.17;;;;;24.40;96186.00;;;;8253649;28;20256;-71
2023/06/13 07:16:39;;;;;;;4.70;3.17;;;;;24.20;96184.00;;;;8253600;28;20213;-70
2023/06/13 07:20:44;;;;;;;3.55;3.15;;;;;23.80;96184.00;;;;8252133;28;20238;-69
2023/06/13 07:24:48;;;;;;;12.13;3.30;;;;;23.90;96181.00;;;;8252069;28;20206;-71
2023/06/13 07:28:51;;;;;;;7.00;3.50;;;;;23.90;96178.00;;;;8246002;28;20214;-72
2023/06/13 07:32:57;;;;;;;5.18;3.10;;;;;23.70;96178.00;;;;8252544;28;20229;-70
2023/06/13 07:37:03;;;;;;;3.28;2.90;;;;;24.00;96181.00;;;;8252560;28;20560;-70
2023/06/13 07:41:11;;;;;;;4.70;3.03;;;;;24.70;96153.00;;;;8252601;28;20203;-69
2023/06/13 07:45:23;;;;;;;11.50;3.50;;;;;24.90;96177.00;;;;8252541;28;20195;-69
2023/06/13 07:49:36;;;;;;;7.97;3.13;;;;;24.80;96176.00;;;;8250126;28;20213;-69
2023/06/13 07:53:41;;;;;;;4.80;3.15;;;;;24.70;96175.00;;;;8257978;28;20223;-69
2023/06/13 07:57:47;;;;;;;9.27;3.22;;;;;24.60;96166.00;;;;8256837;28;20203;-72
2023/06/13 08:02:02;;;;;;;3.10;2.67;;;;;24.80;96167.00;;;;8252955;28;20753;-70
2023/06/13 08:06:07;;;;;;;5.18;2.90;;;;;25.00;96158.00;;;;8257056;28;20210;-72
2023/06/13 08:10:17;;;;;;;9.98;3.15;;;;;25.10;96147.00;;;;8255889;28;20257;-70
2023/06/13 08:14:24;;;;;;;4.78;3.00;;;;;24.80;96146.00;;;;8254743;28;20254;-70
2023/06/13 08:18:30;;;;;;;4.18;2.88;;;;;24.60;96135.00;;;;8255959;28;20202;-69
2023/06/13 08:22:35;;;;;;;11.55;3.53;;;;;25.10;96130.00;;;;8257844;28;20238;-70
2023/06/13 08:26:39;;;;;;;4.88;2.78;;;;;26.00;96135.00;;;;8256973;28;20537;-70
2023/06/13 08:30:42;;;;;;;9.43;3.15;;;;;25.90;96134.00;;;;8249311;28;20202;-70
2023/06/13 08:34:47;;;;;;;5.18;3.40;;;;;26.10;96135.00;;;;8256360;28;20199;-71
2023/06/13 08:38:52;;;;;;;6.53;2.75;;;;;26.00;96139.00;;;;8251946;28;20203;-71
2023/06/13 08:43:00;;;;;;;3.47;3.17;;;;;26.10;96138.00;;;;8255618;28;20198;-70
2023/06/13 08:47:04;;;;;;;9.52;2.92;;;;;26.60;96134.00;;;;8254248;28;20711;-70
2023/06/13 08:51:16;;;;;;;6.28;3.10;;;;;27.00;96125.00;;;;8256122;28;20207;-70
2023/06/13 08:55:23;;;;;;;5.40;3.20;;;;;26.90;96130.00;;;;8254493;28;20235;-70
2023/06/13 08:59:52;;;;;;;6.10;3.03;;;;;27.10;96129.00;;;;8256243;28;20234;-71
2023/06/13 09:03:57;;;;;;;3.60;2.90;;;;;27.10;96122.00;;;;8252645;28;20305;-70
2023/06/13 09:08:04;;;;;;;3.60;3.30;;;;;27.80;96114.00;;;;8255785;28;20278;-70
2023/06/13 09:12:29;;;;;;;6.82;2.72;;;;;28.10;96107.00;;;;8254078;28;20325;-71
2023/06/13 09:16:35;;;;;;;3.20;2.90;;;;;27.50;96108.00;;;;8255273;28;20298;-71
2023/06/13 09:20:41;;;;;;;4.95;3.28;;;;;27.50;96114.00;;;;8255696;28;20747;-70
2023/06/13 09:24:47;;;;;;;10.32;3.00;;;;;26.80;96115.00;;;;8255310;28;20209;-70
2023/06/13 09:28:58;;;;;;;5.35;3.75;;;;;26.70;96111.00;;;;8255289;28;20214;-70
2023/06/13 09:33:03;;;;;;;4.13;2.97;;;;;27.00;96122.00;;;;8255221;28;20234;-70
2023/06/13 09:37:08;;;;;;;3.63;3.13;;;;;27.20;96099.00;;;;8255598;28;20206;-70
2023/06/13 09:41:13;;;;;;;6.75;3.30;;;;;27.20;96106.00;;;;8254145;28;20238;-72
2023/06/13 09:45:21;;;;;;;4.10;3.03;;;;;26.90;96098.00;;;;8269779;28;20199;-70
2023/06/13 09:49:32;;;;;;;7.13;3.10;;;;;27.00;96097.00;;;;8253142;28;20191;-69
2023/06/13 09:53:45;;;;;;;6.97;2.92;;;;;27.30;96082.00;;;;8254280;28;20711;-70
2023/06/13 09:57:52;;;;;;;4.93;3.17;;;;;27.40;96081.00;;;;8251550;28;20546;-70
2023/06/13 10:02:03;;;;;;;4.53;3.15;;;;;28.30;96082.00;;;;8252978;28;20211;-69
2023/06/13 10:06:07;;;;;;;3.67;3.15;;;;;28.10;96078.00;;;;8254420;28;20609;-70
2023/06/13 10:10:14;;;;;;;3.45;2.58;;;;;27.80;96075.00;;;;8251760;28;20283;-70
2023/06/13 10:14:22;;;;;;;5.97;2.88;;;;;27.70;96081.00;;;;8253758;28;20269;-70
2023/06/13 10:18:41;;;;;;;5.68;2.80;;;;;27.60;96066.00;;;;8247317;28;20199;-70
2023/06/13 10:22:46;;;;;;;4.63;2.65;;;;;27.70;96068.00;;;;8253084;28;20680;-69
2023/06/13 10:26:56;;;;;;;6.20;2.92;;;;;27.60;96059.00;;;;8252661;28;20700;-70
2023/06/13 10:31:13;;;;;;;4.35;3.20;;;;;27.40;96056.00;;;;8250356;28;20238;-70
2023/06/13 10:35:31;;;;;;;4.15;2.80;;;;;27.20;96065.00;;;;8247843;28;20231;-70
2023/06/13 10:39:56;;;;;;;8.68;2.80;;;;;27.10;96061.00;;;;8244495;28;20906;-69
2023/06/13 10:44:04;;;;;;;4.72;3.10;;;;;27.20;96051.00;;;;8251153;28;20214;-70
2023/06/13 10:48:22;;;;;;;7.75;2.72;;;;;27.50;96061.00;;;;8251994;28;20659;-70
2023/06/13 10:52:30;;;;;;;5.32;3.55;;;;;27.40;96050.00;;;;8248775;28;20910;-69
2023/06/13 10:56:39;;;;;;;3.28;2.70;;;;;28.20;96049.00;;;;8251618;28;20291;-69
2023/06/13 11:00:43;;;;;;;10.70;3.40;;;;;29.00;96050.00;;;;8252106;28;20202;-70
2023/06/13 11:04:52;;;;;;;3.10;2.80;;;;;29.40;96043.00;;;;8251763;28;20289;-70
2023/06/13 11:09:17;;;;;;;4.20;2.92;;;;;29.50;96055.00;;;;8251375;28;20286;-70
2023/06/13 11:13:27;;;;;;;3.10;2.80;;;;;29.80;96047.00;;;;8246997;28;20583;-71
2023/06/13 11:17:31;;;;;;;3.38;3.08;;;;;29.60;96046.00;;;;8251695;28;20227;-70
2023/06/13 11:21:34;;;;;;;5.68;2.80;;;;;29.40;96044.00;;;;8251535;28;20207;-70
2023/06/13 11:25:39;;;;;;;3.58;2.60;;;;;29.20;96043.00;;;;8248904;28;20720;-70
2023/06/13 11:29:43;;;;;;;4.32;2.67;;;;;29.10;96041.00;;;;8249819;28;20282;-72
2023/06/13 11:33:48;;;;;;;5.03;2.90;;;;;29.40;96050.00;;;;8252055;28;20337;-70
2023/06/13 11:37:57;;;;;;;4.03;2.80;;;;;29.50;96036.00;;;;8248241;28;20664;-70
2023/06/13 11:42:02;;;;;;;8.30;2.83;;;;;29.70;96036.00;;;;8249316;28;20198;-70
2023/06/13 11:46:06;;;;;;;7.50;3.20;;;;;29.20;96033.00;;;;8249638;28;20762;-70
2023/06/13 11:50:09;;;;;;;4.85;3.03;;;;;29.50;96029.00;;;;8251077;28;20278;-69
2023/06/13 11:54:17;;;;;;;6.55;2.83;;;;;29.10;96029.00;;;;8249251;28;20262;-71
2023/06/13 11:58:32;;;;;;;5.63;2.72;;;;;29.30;96013.00;;;;8250727;28;20285;-70
2023/06/13 12:02:40;;;;;;;10.25;3.28;;;;;28.90;96019.00;;;;8251184;28;20325;-70
2023/06/13 12:06:44;;;;;;;3.15;2.75;;;;;28.90;96019.00;;;;8249604;28;20645;-70
2023/06/13 12:10:47;;;;;;;3.30;2.90;;;;;29.50;96012.00;;;;8250420;28;20203;-70
2023/06/13 12:14:59;;;;;;;2.95;2.72;;;;;30.00;96016.00;;;;8250077;28;20222;-70
2023/06/13 12:19:06;;;;;;;9.70;2.95;;;;;29.70;96019.00;;;;8250608;28;20214;-69
2023/06/13 12:23:09;;;;;;;3.05;2.78;;;;;29.50;96021.00;;;;8249837;28;20294;-70
2023/06/13 12:27:16;;;;;;;3.10;2.63;;;;;29.70;96017.00;;;;8249608;28;20210;-70
2023/06/13 12:31:35;;;;;;;4.80;3.13;;;;;30.10;96009.00;;;;8247959;28;20230;-70
2023/06/13 12:35:49;;;;;;;4.05;2.58;;;;;30.40;96001.00;;;;8249208;28;20231;-71
2023/06/13 12:40:06;;;;;;;3.13;2.88;;;;;30.30;96009.00;;;;8266409;28;20866;-70
2023/06/13 12:44:10;;;;;;;5.55;3.28;;;;;29.50;96001.00;;;;8256733;28;20191;-69
2023/06/13 12:48:18;;;;;;;4.38;3.40;;;;;29.60;96014.00;;;;8256290;28;20238;-70
2023/06/13 12:52:31;;;;;;;6.50;3.15;;;;;28.90;96003.00;;;;8256933;28;20287;-69
2023/06/13 12:56:34;;;;;;;5.63;3.03;;;;;28.50;95998.00;;;;8247309;28;20198;-70
2023/06/13 13:00:46;;;;;;;4.15;3.17;;;;;28.10;95991.00;;;;8255564;28;20226;-69
2023/06/13 13:04:59;;;;;;;3.33;2.97;;;;;28.10;95986.00;;;;8256171;28;20222;-70
2023/06/13 13:09:03;;;;;;;6.32;3.08;;;;;28.50;95980.00;;;;8254655;28;20238;-71
2023/06/13 13:13:07;;;;;;;3.78;2.67;;;;;29.30;95981.00;;;;8250511;28;20258;-72
2023/06/13 13:17:11;;;;;;;4.63;3.00;;;;;29.70;95970.00;;;;8255114;28;20242;-70
2023/06/13 13:21:18;;;;;;;3.50;3.20;;;;;29.90;95970.00;;;;8249418;28;20252;-70
2023/06/13 13:25:21;;;;;;;3.67;2.80;;;;;29.80;95966.00;;;;8254564;28;20776;-70
2023/06/13 13:29:27;;;;;;;4.97;3.40;;;;;30.10;95970.00;;;;8254050;28;20210;-70
2023/06/13 13:33:31;;;;;;;3.30;2.92;;;;;30.20;95971.00;;;;8255294;28;20234;-70
2023/06/13 13:37:37;;;;;;;4.78;3.08;;;;;30.70;95966.00;;;;8254082;28;20227;-70
2023/06/13 13:41:40;;;;;;;5.65;2.97;;;;;31.10;95970.00;;;;8254583;28;20199;-71
2023/06/13 13:45:46;;;;;;;3.28;2.97;;;;;31.80;95957.00;;;;8266694;28;20717;-70
2023/06/13 13:49:53;;;;;;;4.55;2.90;;;;;31.30;95960.00;;;;8252979;28;20910;-70
2023/06/13 13:53:58;;;;;;;3.60;3.30;;;;;30.50;95953.00;;;;8247318;28;20230;-70
2023/06/13 13:58:09;;;;;;;4.75;2.95;;;;;30.80;95954.00;;;;8251613;28;20611;-71
2023/06/13 14:02:15;;;;;;;5.70;3.17;;;;;31.00;95933.00;;;;8253971;28;20301;-70
2023/06/13 14:06:20;;;;;;;10.82;3.35;;;;;30.80;95944.00;;;;8251071;28;20593;-71
2023/06/13 14:10:30;;;;;;;3.28;2.97;;;;;30.20;95943.00;;;;8247835;28;20198;-70
2023/06/13 14:14:36;;;;;;;4.25;3.33;;;;;30.10;95938.00;;;;8244964;28;21167;-70
2023/06/13 14:18:48;;;;;;;5.75;2.97;;;;;29.90;95930.00;;;;8238088;28;20653;-70
2023/06/13 14:22:53;;;;;;;5.72;3.00;;;;;30.20;95928.00;;;;8245494;28;20318;-71
2023/06/13 14:26:58;;;;;;;4.95;2.92;;;;;31.30;95926.00;;;;8240368;28;20234;-72
2023/06/13 14:31:05;;;;;;;4.75;3.03;;;;;31.40;95928.00;;;;8245965;28;20218;-71
2023/06/13 14:35:11;;;;;;;4.30;3.28;;;;;31.50;95917.00;;;;8254146;28;20241;-69
2023/06/13 14:39:15;;;;;;;5.03;3.00;;;;;31.60;95912.00;;;;8243219;28;20734;-70
2023/06/13 14:43:21;;;;;;;3.08;2.67;;;;;31.80;95909.00;;;;8246305;28;20290;-69
2023/06/13 14:47:25;;;;;;;3.72;3.28;;;;;31.80;95917.00;;;;8248690;28;20298;-70
2023/06/13 14:51:29;;;;;;;4.22;2.70;;;;;32.00;95917.00;;;;8249123;28;20199;-70
2023/06/13 14:55:37;;;;;;;3.08;2.78;;;;;31.40;95902.00;;;;8251522;28;20280;-72
2023/06/13 14:59:45;;;;;;;5.88;2.90;;;;;30.90;95888.00;;;;8247382;28;20206;-69
2023/06/13 15:03:51;;;;;;;9.82;3.30;;;;;31.30;95904.00;;;;8251013;28;20684;-69
2023/06/13 15:07:55;;;;;;;5.38;2.90;;;;;31.80;95893.00;;;;8249303;28;20633;-68
2023/06/13 15:11:59;;;;;;;3.70;2.67;;;;;32.20;95895.00;;;;8251175;28;20202;-69
2023/06/13 15:16:06;;;;;;;3.10;2.75;;;;;32.10;95894.00;;;;8251634;28;20257;-69
2023/06/13 15:20:10;;;;;;;4.88;3.20;;;;;32.00;95902.00;;;;8251084;28;20664;-69
2023/06/13 15:24:16;;;;;;;4.85;2.85;;;;;31.70;95894.00;;;;8250399;28;20206;-70
2023/06/13 15:28:58;;;;;;;5.15;2.70;;;;;31.60;95889.00;;;;8248546;28;20222;-69
2023/06/13 15:33:03;;;;;;;4.20;2.85;;;;;31.70;95888.00;;;;8248763;28;20203;-69
2023/06/13 15:37:08;;;;;;;5.72;3.00;;;;;31.80;95878.00;;;;8248195;28;20245;-69
2023/06/13 15:41:17;;;;;;;7.78;3.42;;;;;31.50;95881.00;;;;8248551;28;20717;-69
2023/06/13 15:45:21;;;;;;;4.18;2.80;;;;;30.80;95888.00;;;;8251660;28;20297;-70
2023/06/13 15:49:27;;;;;;;4.32;3.00;;;;;30.10;95891.00;;;;8247278;28;20294;-69
2023/06/13 15:53:32;;;;;;;5.40;3.15;;;;;29.80;95886.00;;;;8250602;28;20971;-69
2023/06/13 15:57:35;;;;;;;3.75;3.10;;;;;29.60;95892.00;;;;8251262;28;20293;-70
2023/06/13 16:01:43;;;;;;;7.60;3.50;;;;;29.50;95888.00;;;;8250096;28;20195;-69
2023/06/13 16:06:02;;;;;;;3.22;2.92;;;;;29.80;95896.00;;;;8249765;28;20226;-70
2023/06/13 16:10:05;;;;;;;3.88;3.40;;;;;30.00;95882.00;;;;8249291;28;20261;-70
2023/06/13 16:14:10;;;;;;;6.13;3.40;;;;;30.10;95887.00;;;;8258114;28;20222;-69
2023/06/13 16:18:15;;;;;;;5.03;3.15;;;;;30.00;95901.00;;;;8256773;28;20234;-72
2023/06/13 16:22:22;;;;;;;4.55;3.30;;;;;30.00;95886.00;;;;8256698;28;20202;-70
2023/06/13 16:26:28;;;;;;;8.13;3.08;;;;;29.80;95890.00;;;;8255246;28;20253;-69
2023/06/13 16:30:34;;;;;;;3.83;3.35;;;;;29.70;95887.00;;;;8252132;28;20283;-70
2023/06/13 16:34:38;;;;;;;6.38;3.50;;;;;29.90;95893.00;;;;8257457;28;20313;-70
2023/06/13 16:38:45;;;;;;;3.55;3.25;;;;;30.10;95888.00;;;;8256733;28;20230;-69
2023/06/13 16:42:49;;;;;;;3.20;2.83;;;;;30.20;95896.00;;;;8253923;28;20302;-70
2023/06/13 16:46:53;;;;;;;3.10;2.90;;;;;30.60;95897.00;;;;8253517;28;20986;-70
2023/06/13 16:50:59;;;;;;;3.60;3.30;;;;;30.80;95894.00;;;;8257772;28;20199;-71
2023/06/13 16:55:07;;;;;;;3.60;3.30;;;;;31.00;95892.00;;;;8254839;28;20238;-70
2023/06/13 16:59:13;;;;;;;3.50;3.20;;;;;31.30;95900.00;;;;8252676;28;20278;-70
2023/06/13 17:03:18;;;;;;;4.65;3.50;;;;;31.50;95896.00;;;;8257158;28;20310;-70
2023/06/13 17:07:22;;;;;;;5.10;2.53;;;;;31.60;95896.00;;;;8254317;28;20219;-70
2023/06/13 17:11:27;;;;;;;7.40;3.17;;;;;31.60;95895.00;;;;8253052;28;20538;-70
2023/06/13 17:15:30;;;;;;;7.10;3.30;;;;;31.40;95889.00;;;;8249971;28;20226;-70
2023/06/13 17:19:33;;;;;;;3.00;2.80;;;;;31.40;95882.00;;;;8255231;28;20202;-70
2023/06/13 17:23:37;;;;;;;4.53;3.33;;;;;31.60;95882.00;;;;8249428;28;20248;-69
2023/06/13 17:27:43;;;;;;;3.65;3.15;;;;;31.40;95882.00;;;;8251704;28;20206;-70
2023/06/13 17:31:46;;;;;;;6.57;2.90;;;;;31.30;95887.00;;;;8246036;28;20209;-70
2023/06/13 17:35:53;;;;;;;5.25;3.08;;;;;31.10;95887.00;;;;8252865;28;20271;-71
2023/06/13 17:39:56;;;;;;;4.63;3.15;;;;;30.90;95887.00;;;;8250939;28;20207;-70
2023/06/13 17:44:01;;;;;;;5.00;3.35;;;;;30.90;95888.00;;;;8267456;28;20335;-71
2023/06/13 17:48:07;;;;;;;4.88;3.15;;;;;30.90;95891.00;;;;8252584;28;20203;-71
2023/06/13 17:52:10;;;;;;;3.10;2.80;;;;;30.90;95886.00;;;;8246804;28;20552;-71
2023/06/13 17:56:16;;;;;;;7.15;2.92;;;;;30.40;95895.00;;;;8243628;28;20226;-71
2023/06/13 18:00:21;;;;;;;6.72;2.95;;;;;29.60;95890.00;;;;8241281;28;20851;-76
2023/06/13 18:04:31;;;;;;;4.43;2.63;;;;;28.50;95889.00;;;;8243759;28;20223;-76
2023/06/13 18:08:35;;;;;;;3.17;2.88;;;;;27.70;95888.00;;;;8242159;28;20227;-75
2023/06/13 18:12:39;;;;;;;3.53;3.13;;;;;26.90;95894.00;;;;8249494;28;20290;-74
2023/06/13 18:16:45;;;;;;;6.50;3.00;;;;;26.30;95892.00;;;;8244066;28;20257;-72
2023/06/13 18:20:50;;;;;;;5.63;3.20;;;;;25.60;95893.00;;;;8240458;28;20199;-72
2023/06/13 18:24:54;;;;;;;5.75;3.10;;;;;25.20;95894.00;;;;8242788;28;20289;-73
2023/06/13 18:28:59;;;;;;;7.78;3.17;;;;;24.70;95894.00;;;;8252590;28;20260;-73
2023/06/13 18:33:04;;;;;;;6.55;3.38;;;;;24.40;95891.00;;;;8251952;28;20294;-72
2023/06/13 18:37:07;;;;;;;4.10;3.00;;;;;24.10;95892.00;;;;8253876;28;20249;-73
2023/06/13 18:41:14;;;;;;;7.35;3.28;;;;;23.80;95892.00;;;;8253246;28;20286;-70
2023/06/13 18:45:17;;;;;;;4.65;3.60;;;;;23.50;95892.00;;;;8253398;28;20195;-72
2023/06/13 18:49:26;;;;;;;4.57;2.97;;;;;23.10;95885.00;;;;8252937;28;20333;-72
2023/06/13 18:53:31;;;;;;;3.17;2.80;;;;;22.80;95895.00;;;;8249641;28;20272;-73
2023/06/13 18:57:35;;;;;;;7.75;2.80;;;;;22.50;95889.00;;;;8255250;28;21040;-73
2023/06/13 19:01:39;;;;;;;3.45;3.13;;;;;22.10;95902.00;;;;8253586;28;20293;-71
2023/06/13 19:05:47;;;;;;;5.50;3.00;;;;;21.70;95899.00;;;;8252019;28;20215;-71
2023/06/13 19:09:50;;;;;;;10.18;3.10;;;;;21.40;95902.00;;;;8250312;28;20652;-72
2023/06/13 19:13:53;;;;;;;3.95;2.88;;;;;21.00;95910.00;;;;8247637;28;20286;-72
2023/06/13 19:17:57;;;;;;;4.00;2.97;;;;;20.70;95912.00;;;;8249945;28;20227;-72
2023/06/13 19:22:01;;;;;;;2.88;2.67;;;;;20.40;95912.00;;;;8250302;28;20981;-72
2023/06/13 19:26:11;;;;;;;3.63;2.97;;;;;20.00;95922.00;;;;8251532;28;20302;-72
2023/06/13 19:30:24;;;;;;;6.40;3.00;;;;;19.60;95922.00;;;;8248058;28;20210;-71
2023/06/13 19:34:27;;;;;;;4.75;2.78;;;;;19.30;95925.00;;;;8243570;28;20826;-72
2023/06/13 19:38:34;;;;;;;9.07;2.83;;;;;19.10;95934.00;;;;8239098;28;20230;-72
2023/06/13 19:42:44;;;;;;;5.28;3.33;;;;;18.80;95931.00;;;;8246828;28;20301;-71
2023/06/13 19:46:50;;;;;;;4.88;2.92;;;;;18.60;95935.00;;;;8244670;28;20211;-72
2023/06/13 19:50:57;;;;;;;3.28;2.97;;;;;18.40;95944.00;;;;8246378;28;20237;-71
2023/06/13 19:55:21;;;;;;;3.10;2.80;;;;;18.20;95947.00;;;;8246630;28;20234;-71
2023/06/13 19:59:27;;;;;;;3.08;2.67;;;;;18.00;95951.00;;;;8241926;28;20288;-70
2023/06/13 20:03:31;;;;;;;3.75;2.67;;;;;17.80;95956.00;;;;8245627;28;20338;-71
2023/06/13 20:07:34;;;;;;;3.67;2.90;;;;;17.80;95956.00;;;;8245705;28;20207;-70
2023/06/13 20:11:39;;;;;;;3.40;2.90;;;;;17.70;95958.00;;;;8247383;28;20740;-70
2023/06/13 20:15:44;;;;;;;3.40;2.70;;;;;17.50;95963.00;;;;8242728;28;20226;-69
2023/06/13 20:19:47;;;;;;;4.78;3.08;;;;;17.50;95974.00;;;;8243106;28;20699;-69
2023/06/13 20:23:50;;;;;;;5.72;3.42;;;;;17.50;95976.00;;;;8245733;28;20199;-70
2023/06/13 20:27:57;;;;;;;4.03;3.13;;;;;17.40;95973.00;;;;8250158;28;20715;-70
2023/06/13 20:32:01;;;;;;;5.47;2.92;;;;;17.40;95979.00;;;;8245589;28;20221;-70
2023/06/13 20:36:06;;;;;;;4.05;3.13;;;;;17.40;95973.00;;;;8245698;28;20234;-71
2023/06/13 20:40:14;;;;;;;5.57;2.97;;;;;17.30;95980.00;;;;8245193;28;20272;-71
2023/06/13 20:44:19;;;;;;;4.32;3.15;;;;;17.40;95974.00;;;;8247881;28;20879;-65